createdAt,value
2023-07-08T00:01:42.535Z,98562.86
2023-07-08T00:04:12.107Z,98559.84
2023-07-08T00:06:41.453Z,98559.42
2023-07-08T00:09:12.684Z,98571.57
2023-07-08T00:11:41.459Z,98574.24
2023-07-08T00:14:10.647Z,98568.13
2023-07-08T00:16:41.880Z,98569.55
2023-07-08T00:19:12.563Z,98568.98
2023-07-08T00:21:42.102Z,98569.11
2023-07-08T00:24:10.837Z,98569.11
2023-07-08T00:26:40.687Z,98568.43
2023-07-08T00:29:13.609Z,98567.80
2023-07-08T00:31:42.532Z,98567.58
2023-07-08T00:34:12.388Z,98573.17
2023-07-08T00:36:42.371Z,98565.40
2023-07-08T00:39:15.877Z,98568.05
2023-07-08T00:41:45.476Z,98567.47
2023-07-08T00:44:14.908Z,98560.26
2023-07-08T00:46:51.566Z,98559.93
2023-07-08T00:49:39.237Z,98565.27
2023-07-08T00:52:35.946Z,98562.86
2023-07-08T00:55:10.691Z,98559.41
2023-07-08T00:57:43.411Z,98560.16
2023-07-08T01:00:17.662Z,98562.41
2023-07-08T01:02:53.393Z,98565.23
2023-07-08T01:05:26.518Z,98563.51
2023-07-08T01:07:59.136Z,98564.38
2023-07-08T01:10:38.181Z,98560.20
2023-07-08T01:13:09.925Z,98560.68
2023-07-08T01:15:42.632Z,98560.94
2023-07-08T01:18:16.890Z,98557.95
2023-07-08T01:20:48.547Z,98555.84
2023-07-08T01:23:19.878Z,98550.98
2023-07-08T01:25:49.080Z,98551.95
2023-07-08T01:28:19.493Z,98551.86
2023-07-08T01:30:50.422Z,98547.30
2023-07-08T01:33:22.391Z,98552.58
2023-07-08T01:35:53.142Z,98552.29
2023-07-08T01:38:27.580Z,98551.45
2023-07-08T01:40:58.547Z,98551.49
2023-07-08T01:43:27.901Z,98551.95
2023-07-08T01:46:01.830Z,98547.55
2023-07-08T01:48:37.832Z,98548.23
2023-07-08T01:51:08.718Z,98543.77
2023-07-08T01:53:41.246Z,98548.93
2023-07-08T01:56:11.555Z,98546.73
2023-07-08T01:58:41.641Z,98544.27
2023-07-08T02:01:14.780Z,98539.87
2023-07-08T02:03:46.980Z,98541.94
2023-07-08T02:06:16.408Z,98542.79
2023-07-08T02:08:45.870Z,98545.76
2023-07-08T02:11:15.320Z,98547.89
2023-07-08T02:13:44.215Z,98543.72
2023-07-08T02:16:14.059Z,98538.87
2023-07-08T02:18:43.799Z,98537.12
2023-07-08T02:21:13.873Z,98538.77
2023-07-08T02:23:44.743Z,98540.09
2023-07-08T02:26:14.902Z,98541.47
2023-07-08T02:28:44.541Z,98544.73
2023-07-08T02:31:13.343Z,98548.70
2023-07-08T02:33:42.079Z,98546.77
2023-07-08T02:36:13.661Z,98545.10
2023-07-08T02:38:43.772Z,98541.86
2023-07-08T02:41:12.597Z,98542.61
2023-07-08T02:43:42.508Z,98544.04
2023-07-08T02:46:11.721Z,98545.79
2023-07-08T02:48:42.266Z,98543.52
2023-07-08T02:51:11.848Z,98546.37
2023-07-08T02:53:40.990Z,98550.83
2023-07-08T02:56:09.639Z,98551.30
2023-07-08T02:58:38.659Z,98554.89
2023-07-08T03:01:07.812Z,98559.83
2023-07-08T03:03:37.060Z,98558.55
2023-07-08T03:06:06.805Z,98564.36
2023-07-08T03:08:36.233Z,98561.73
2023-07-08T03:11:08.022Z,98563.80
2023-07-08T03:13:38.251Z,98563.96
2023-07-08T03:16:12.897Z,98565.20
2023-07-08T03:18:47.538Z,98565.91
2023-07-08T03:21:18.526Z,98563.39
2023-07-08T03:23:48.451Z,98558.90
2023-07-08T03:26:19.561Z,98561.16
2023-07-08T03:28:49.861Z,98558.61
2023-07-08T03:31:19.459Z,98562.01
2023-07-08T03:33:48.478Z,98562.30
2023-07-08T03:36:24.337Z,98561.13
2023-07-08T03:38:56.803Z,98562.61
2023-07-08T03:41:26.617Z,98561.83
2023-07-08T03:43:58.834Z,98557.62
2023-07-08T03:46:29.016Z,98547.02
2023-07-08T03:48:57.795Z,98548.48
2023-07-08T03:51:30.322Z,98546.32
2023-07-08T03:53:59.248Z,98544.66
2023-07-08T03:56:28.605Z,98546.17
2023-07-08T03:58:57.625Z,98543.91
2023-07-08T04:01:27.241Z,98539.16
2023-07-08T04:03:58.089Z,98535.41
2023-07-08T04:06:27.324Z,98532.62
2023-07-08T04:08:55.978Z,98531.82
2023-07-08T04:11:26.306Z,98535.39
2023-07-08T04:13:56.278Z,98534.67
2023-07-08T04:16:29.600Z,98528.33
2023-07-08T04:18:59.460Z,98533.15
2023-07-08T04:21:30.699Z,98534.02
2023-07-08T04:23:59.650Z,98536.95
2023-07-08T04:26:28.509Z,98538.57
2023-07-08T04:28:57.436Z,98535.84
2023-07-08T04:31:26.621Z,98531.88
2023-07-08T04:33:55.190Z,98531.30
2023-07-08T04:36:25.427Z,98531.82
2023-07-08T04:38:54.403Z,98536.48
2023-07-08T04:41:23.432Z,98537.79
2023-07-08T04:43:53.630Z,98536.13
2023-07-08T04:46:31.559Z,98533.96
2023-07-08T04:49:01.009Z,98531.46
2023-07-08T04:51:30.419Z,98529.64
2023-07-08T04:53:59.350Z,98529.84
2023-07-08T04:56:38.375Z,98533.08
2023-07-08T04:59:09.052Z,98532.95
2023-07-08T05:01:38.302Z,98528.13
2023-07-08T05:04:07.783Z,98529.73
2023-07-08T05:06:36.601Z,98529.33
2023-07-08T05:09:06.885Z,98529.44
2023-07-08T05:11:36.323Z,98532.47
2023-07-08T05:14:06.748Z,98531.81
2023-07-08T05:16:36.669Z,98531.63
2023-07-08T05:19:06.320Z,98524.79
2023-07-08T05:21:35.369Z,98529.52
2023-07-08T05:24:06.757Z,98533.90
2023-07-08T05:26:36.114Z,98535.42
2023-07-08T05:29:06.082Z,98537.27
2023-07-08T05:34:06.812Z,98536.65
2023-07-08T05:36:35.408Z,98532.51
2023-07-08T05:39:05.085Z,98531.18
2023-07-08T05:41:33.702Z,98530.45
2023-07-08T05:44:02.664Z,98530.52
2023-07-08T05:46:32.667Z,98525.92
2023-07-08T05:49:02.214Z,98526.39
2023-07-08T05:51:30.748Z,98529.78
2023-07-08T05:53:59.659Z,98534.80
2023-07-08T05:56:29.007Z,98533.72
2023-07-08T05:58:57.590Z,98535.12
2023-07-08T06:01:26.278Z,98535.19
2023-07-08T06:03:58.537Z,98536.54
2023-07-08T06:06:27.821Z,98538.75
2023-07-08T06:08:57.234Z,98542.78
2023-07-08T06:11:26.297Z,98542.34
2023-07-08T06:13:54.957Z,98542.27
2023-07-08T06:18:57.955Z,98548.58
2023-07-08T06:21:26.452Z,98548.77
2023-07-08T06:23:55.301Z,98545.23
2023-07-08T06:26:26.285Z,98546.38
2023-07-08T06:28:55.138Z,98542.04
2023-07-08T06:31:24.171Z,98542.06
2023-07-08T06:33:52.592Z,98542.27
2023-07-08T06:36:21.813Z,98545.06
2023-07-08T06:38:52.257Z,98547.42
2023-07-08T06:41:21.012Z,98546.86
2023-07-08T06:43:51.114Z,98547.41
2023-07-08T06:46:21.191Z,98545.31
2023-07-08T06:48:49.538Z,98551.89
2023-07-08T06:51:18.593Z,98548.48
2023-07-08T06:53:47.188Z,98547.05
2023-07-08T06:56:15.807Z,98546.82
2023-07-08T06:58:45.222Z,98542.02
2023-07-08T07:01:13.873Z,98544.64
2023-07-08T07:03:42.784Z,98544.90
2023-07-08T07:06:11.500Z,98543.88
2023-07-08T07:08:41.174Z,98541.30
2023-07-08T07:11:10.337Z,98540.53
2023-07-08T07:13:39.421Z,98537.95
2023-07-08T07:16:07.948Z,98540.95
2023-07-08T07:18:36.887Z,98542.38
2023-07-08T07:21:07.837Z,98539.70
2023-07-08T07:23:37.342Z,98533.34
2023-07-08T07:26:06.410Z,98533.27
2023-07-08T07:28:35.274Z,98534.22
2023-07-08T07:31:06.900Z,98536.59
2023-07-08T07:33:35.874Z,98536.96
2023-07-08T07:36:06.041Z,98537.59
2023-07-08T07:38:35.098Z,98543.33
2023-07-08T07:41:06.517Z,98539.33
2023-07-08T07:43:35.894Z,98541.85
2023-07-08T07:46:06.121Z,98543.83
2023-07-08T07:48:35.212Z,98542.01
2023-07-08T07:51:05.171Z,98543.45
2023-07-08T07:53:34.455Z,98538.52
2023-07-08T07:56:05.123Z,98533.52
2023-07-08T07:58:34.812Z,98533.75
2023-07-08T08:01:04.229Z,98535.95
2023-07-08T08:03:34.016Z,98537.20
2023-07-08T08:06:04.087Z,98537.86
2023-07-08T08:08:34.316Z,98537.95
2023-07-08T08:11:04.918Z,98542.27
2023-07-08T08:13:34.376Z,98541.70
2023-07-08T08:16:04.733Z,98541.38
2023-07-08T08:18:34.846Z,98539.12
2023-07-08T08:21:04.674Z,98543.16
2023-07-08T08:23:33.691Z,98545.27
2023-07-08T08:26:04.217Z,98546.47
2023-07-08T08:28:33.724Z,98551.27
2023-07-08T08:31:03.025Z,98551.91
2023-07-08T08:33:32.570Z,98552.79
2023-07-08T08:36:03.053Z,98549.00
2023-07-08T08:38:32.317Z,98545.91
2023-07-08T08:41:05.795Z,98543.57
2023-07-08T08:43:40.189Z,98536.79
2023-07-08T08:46:16.288Z,98537.72
2023-07-08T08:49:00.371Z,98537.48
2023-07-08T08:51:33.002Z,98536.33
2023-07-08T08:54:03.055Z,98531.59
2023-07-08T08:56:40.400Z,98531.64
2023-07-08T08:59:17.101Z,98528.96
2023-07-08T09:01:48.713Z,98527.98
2023-07-08T09:04:23.705Z,98528.75
2023-07-08T09:06:58.000Z,98527.39
2023-07-08T09:09:36.649Z,98524.73
2023-07-08T09:12:10.920Z,98528.77
2023-07-08T09:14:40.632Z,98527.45
2023-07-08T09:17:19.973Z,98527.27
2023-07-08T09:20:06.287Z,98529.17
2023-07-08T09:22:44.009Z,98527.17
2023-07-08T09:25:25.430Z,98528.15
2023-07-08T09:27:54.894Z,98525.92
2023-07-08T09:30:25.772Z,98525.69
2023-07-08T09:32:54.886Z,98525.95
2023-07-08T09:35:26.755Z,98523.07
2023-07-08T09:37:56.893Z,98516.79
2023-07-08T09:40:31.830Z,98519.86
2023-07-08T09:43:04.977Z,98518.61
2023-07-08T09:45:45.636Z,98517.02
2023-07-08T09:48:20.800Z,98511.48
2023-07-08T09:50:52.610Z,98510.23
2023-07-08T09:53:22.045Z,98507.98
2023-07-08T09:55:53.462Z,98510.05
2023-07-08T09:58:26.386Z,98506.85
2023-07-08T10:00:58.969Z,98504.69
2023-07-08T10:03:32.359Z,98502.59
2023-07-08T10:06:06.932Z,98503.88
2023-07-08T10:08:43.658Z,98504.73
2023-07-08T10:11:22.203Z,98504.73
2023-07-08T10:14:11.714Z,98501.79
2023-07-08T10:16:45.499Z,98497.05
2023-07-08T10:19:21.528Z,98496.32
2023-07-08T10:22:07.136Z,98501.89
2023-07-08T10:25:02.658Z,98495.47
2023-07-08T10:27:41.673Z,98496.36
2023-07-08T10:30:23.227Z,98494.42
2023-07-08T10:33:14.472Z,98492.33
2023-07-08T10:35:56.842Z,98491.29
2023-07-08T10:38:44.167Z,98490.36
2023-07-08T10:41:26.006Z,98486.05
2023-07-08T10:44:09.538Z,98486.55
2023-07-08T10:47:01.991Z,98482.23
2023-07-08T10:49:50.272Z,98480.92
2023-07-08T10:52:39.431Z,98480.20
2023-07-08T10:55:30.453Z,98468.29
2023-07-08T10:58:21.995Z,98460.23
2023-07-08T11:01:04.630Z,98462.54
2023-07-08T11:04:00.222Z,98461.70
2023-07-08T11:06:44.301Z,98455.34
2023-07-08T11:09:20.647Z,98454.40
2023-07-08T11:11:56.208Z,98450.34
2023-07-08T11:14:33.076Z,98443.91
2023-07-08T11:17:17.911Z,98444.41
2023-07-08T11:19:56.921Z,98441.12
2023-07-08T11:22:33.154Z,98444.66
2023-07-08T11:25:18.738Z,98442.42
2023-07-08T11:27:54.034Z,98436.02
2023-07-08T11:30:30.826Z,98436.90
2023-07-08T11:33:08.444Z,98432.58
2023-07-08T11:35:45.845Z,98431.10
2023-07-08T11:38:19.853Z,98432.02
2023-07-08T11:40:58.106Z,98428.10
2023-07-08T11:43:36.483Z,98428.95
2023-07-08T11:46:14.632Z,98426.12
2023-07-08T11:48:51.087Z,98424.17
2023-07-08T11:51:31.251Z,98428.80
2023-07-08T11:54:13.590Z,98427.70
2023-07-08T11:56:59.954Z,98428.95
2023-07-08T11:59:35.218Z,98425.31
2023-07-08T12:02:13.988Z,98427.39
2023-07-08T12:05:04.231Z,98427.02
2023-07-08T12:07:39.857Z,98423.88
2023-07-08T12:10:18.827Z,98423.09
2023-07-08T12:12:50.705Z,98423.25
2023-07-08T12:15:27.618Z,98419.23
2023-07-08T12:18:04.207Z,98415.20
2023-07-08T12:20:39.464Z,98415.34
2023-07-08T12:23:16.177Z,98418.81
2023-07-08T12:25:49.978Z,98411.86
2023-07-08T12:28:24.376Z,98411.68
2023-07-08T12:31:00.693Z,98409.77
2023-07-08T12:33:35.312Z,98411.67
2023-07-08T12:36:11.380Z,98413.04
2023-07-08T12:38:46.568Z,98409.50
2023-07-08T12:41:23.926Z,98408.73
2023-07-08T12:43:55.894Z,98409.25
2023-07-08T12:46:29.156Z,98406.36
2023-07-08T12:49:01.287Z,98404.31
2023-07-08T12:51:33.661Z,98403.02
2023-07-08T12:54:06.539Z,98400.14
2023-07-08T12:56:39.687Z,98397.42
2023-07-08T12:59:14.532Z,98395.17
2023-07-08T13:01:50.490Z,98397.22
2023-07-08T13:04:22.971Z,98395.70
2023-07-08T13:06:56.393Z,98391.25
2023-07-08T13:09:39.677Z,98391.16
2023-07-08T13:12:19.166Z,98383.48
2023-07-08T13:14:53.222Z,98381.23
2023-07-08T13:17:25.332Z,98377.36
2023-07-08T13:19:57.979Z,98375.88
2023-07-08T13:22:31.791Z,98377.33
2023-07-08T13:25:16.099Z,98373.45
2023-07-08T13:27:58.482Z,98369.90
2023-07-08T13:30:32.277Z,98371.60
2023-07-08T13:33:05.075Z,98369.85
2023-07-08T13:35:42.942Z,98375.59
2023-07-08T13:38:19.702Z,98371.41
2023-07-08T13:40:55.371Z,98369.02
2023-07-08T13:43:31.842Z,98369.02
2023-07-08T13:46:03.992Z,98365.89
2023-07-08T13:48:41.224Z,98360.01
2023-07-08T13:51:19.053Z,98362.09
2023-07-08T13:53:55.684Z,98365.13
2023-07-08T13:56:32.892Z,98364.83
2023-07-08T13:59:07.834Z,98359.11
2023-07-08T14:01:44.577Z,98360.48
2023-07-08T14:04:20.845Z,98356.66
2023-07-08T14:06:53.179Z,98358.23
2023-07-08T14:09:26.548Z,98357.53
2023-07-08T14:11:58.867Z,98365.77
2023-07-08T14:14:30.860Z,98364.05
2023-07-08T14:17:03.626Z,98365.58
2023-07-08T14:19:37.581Z,98362.15
2023-07-08T14:22:25.707Z,98360.75
2023-07-08T14:24:59.246Z,98354.34
2023-07-08T14:27:32.956Z,98353.52
2023-07-08T14:30:05.843Z,98348.02
2023-07-08T14:32:38.070Z,98344.05
2023-07-08T14:35:20.210Z,98347.02
2023-07-08T14:37:52.092Z,98341.95
2023-07-08T14:40:27.973Z,98342.48
2023-07-08T14:43:04.516Z,98339.46
2023-07-08T14:45:45.624Z,98339.64
2023-07-08T14:48:18.867Z,98333.76
2023-07-08T14:50:51.024Z,98334.11
2023-07-08T14:53:23.205Z,98332.70
2023-07-08T14:55:59.638Z,98332.05
2023-07-08T14:58:34.999Z,98331.58
2023-07-08T15:01:15.572Z,98331.31
2023-07-08T15:03:48.057Z,98328.77
2023-07-08T15:06:20.329Z,98327.56
2023-07-08T15:08:53.212Z,98326.72
2023-07-08T15:11:27.540Z,98322.08
2023-07-08T15:13:59.860Z,98324.30
2023-07-08T15:16:32.779Z,98326.09
2023-07-08T15:19:10.300Z,98319.02
2023-07-08T15:21:42.889Z,98319.92
2023-07-08T15:24:16.568Z,98323.84
2023-07-08T15:26:51.477Z,98320.71
2023-07-08T15:29:25.898Z,98314.73
2023-07-08T15:31:59.349Z,98311.06
2023-07-08T15:34:31.511Z,98312.56
2023-07-08T15:37:04.029Z,98312.50
2023-07-08T15:39:36.130Z,98315.80
2023-07-08T15:42:12.405Z,98314.83
2023-07-08T15:44:44.850Z,98315.39
2023-07-08T15:47:17.077Z,98312.15
2023-07-08T15:49:49.529Z,98312.63
2023-07-08T15:52:21.439Z,98306.02
2023-07-08T15:54:55.413Z,98311.33
2023-07-08T15:57:28.230Z,98310.25
2023-07-08T16:00:00.329Z,98310.05
2023-07-08T16:02:36.311Z,98309.13
2023-07-08T16:05:11.710Z,98314.30
2023-07-08T16:07:43.809Z,98312.54
2023-07-08T16:10:16.006Z,98309.29
2023-07-08T16:12:50.493Z,98310.86
2023-07-08T16:15:29.484Z,98310.73
2023-07-08T16:18:03.082Z,98309.64
2023-07-08T16:20:35.066Z,98311.20
2023-07-08T16:23:07.537Z,98310.88
2023-07-08T16:25:44.940Z,98307.61
2023-07-08T16:28:24.182Z,98304.30
2023-07-08T16:30:57.034Z,98307.98
2023-07-08T16:33:30.559Z,98305.98
2023-07-08T16:36:02.800Z,98308.23
2023-07-08T16:38:34.530Z,98305.55
2023-07-08T16:41:07.186Z,98304.08
2023-07-08T16:43:40.135Z,98302.15
2023-07-08T16:46:13.681Z,98299.02
2023-07-08T16:48:45.925Z,98295.03
2023-07-08T16:51:20.464Z,98293.52
2023-07-08T16:53:53.585Z,98293.79
2023-07-08T16:56:26.148Z,98293.64
2023-07-08T16:59:00.116Z,98293.75
2023-07-08T17:01:33.649Z,98291.48
2023-07-08T17:04:07.714Z,98292.29
2023-07-08T17:06:40.735Z,98292.66
2023-07-08T17:09:15.353Z,98289.90
2023-07-08T17:11:47.852Z,98286.52
2023-07-08T17:14:20.568Z,98287.65
2023-07-08T17:16:53.943Z,98288.86
2023-07-08T17:19:25.758Z,98288.79
2023-07-08T17:21:57.813Z,98289.32
2023-07-08T17:24:29.939Z,98289.24
2023-07-08T17:27:02.155Z,98289.13
2023-07-08T17:29:34.745Z,98290.53
2023-07-08T17:32:10.423Z,98291.30
2023-07-08T17:34:42.561Z,98290.23
2023-07-08T17:37:14.730Z,98291.02
2023-07-08T17:39:46.626Z,98291.09
2023-07-08T17:42:18.231Z,98289.67
2023-07-08T17:44:50.433Z,98292.86
2023-07-08T17:47:23.561Z,98289.40
2023-07-08T17:49:56.452Z,98286.80
2023-07-08T17:52:28.161Z,98287.80
2023-07-08T17:55:00.743Z,98287.27
2023-07-08T17:57:33.953Z,98284.61
2023-07-08T18:00:11.003Z,98285.65
2023-07-08T18:02:45.276Z,98281.49
2023-07-08T18:05:20.881Z,98279.27
2023-07-08T18:07:55.688Z,98286.52
2023-07-08T18:10:30.497Z,98287.14
2023-07-08T18:13:08.730Z,98289.15
2023-07-08T18:15:58.487Z,98285.55
2023-07-08T18:18:32.046Z,98289.54
2023-07-08T18:21:04.378Z,98289.13
2023-07-08T18:23:36.853Z,98285.27
2023-07-08T18:26:10.421Z,98288.34
2023-07-08T18:28:43.084Z,98287.23
2023-07-08T18:31:15.948Z,98288.92
2023-07-08T18:33:48.437Z,98288.15
2023-07-08T18:36:20.863Z,98289.95
2023-07-08T18:38:54.298Z,98285.19
2023-07-08T18:41:29.508Z,98281.10
2023-07-08T18:44:02.567Z,98285.95
2023-07-08T18:46:35.941Z,98286.83
2023-07-08T18:49:09.418Z,98291.44
2023-07-08T18:51:44.202Z,98290.79
2023-07-08T18:54:20.783Z,98294.87
2023-07-08T18:56:53.478Z,98301.05
2023-07-08T18:59:26.372Z,98300.98
2023-07-08T19:01:59.177Z,98300.05
2023-07-08T19:04:32.224Z,98305.61
2023-07-08T19:07:07.292Z,98305.27
2023-07-08T19:09:40.635Z,98311.41
2023-07-08T19:12:14.178Z,98315.02
2023-07-08T19:14:46.490Z,98316.09
2023-07-08T19:17:18.484Z,98320.27
2023-07-08T19:19:51.334Z,98318.69
2023-07-08T19:22:24.303Z,98320.48
2023-07-08T19:24:57.164Z,98320.27
2023-07-08T19:27:29.437Z,98317.75
2023-07-08T19:30:03.080Z,98318.29
2023-07-08T19:32:35.910Z,98319.52
2023-07-08T19:35:12.854Z,98316.16
2023-07-08T19:37:44.758Z,98319.16
2023-07-08T19:40:20.406Z,98317.81
2023-07-08T19:42:54.969Z,98319.44
2023-07-08T19:45:29.820Z,98316.33
2023-07-08T19:48:01.738Z,98316.91
2023-07-08T19:50:33.666Z,98314.58
2023-07-08T19:53:06.204Z,98312.99
2023-07-08T19:55:39.637Z,98316.32
2023-07-08T19:58:15.296Z,98316.12
2023-07-08T20:00:48.651Z,98314.29
2023-07-08T20:03:21.689Z,98312.38
2023-07-08T20:05:53.806Z,98306.84
2023-07-08T20:08:31.614Z,98310.55
2023-07-08T20:11:03.207Z,98312.92
2023-07-08T20:13:36.338Z,98310.23
2023-07-08T20:16:17.141Z,98313.66
2023-07-08T20:18:50.215Z,98318.13
2023-07-08T20:21:22.775Z,98314.17
2023-07-08T20:23:55.834Z,98317.81
2023-07-08T20:26:34.072Z,98314.83
2023-07-08T20:29:06.783Z,98323.40
2023-07-08T20:31:43.035Z,98323.44
2023-07-08T20:34:18.691Z,98324.55
2023-07-08T20:36:52.135Z,98325.82
2023-07-08T20:39:29.123Z,98328.59
2023-07-08T20:42:07.183Z,98333.06
2023-07-08T20:44:56.922Z,98332.34
2023-07-08T20:47:30.263Z,98336.40
2023-07-08T20:50:03.479Z,98340.09
2023-07-08T20:52:36.370Z,98339.33
2023-07-08T20:55:12.509Z,98337.45
2023-07-08T20:57:47.787Z,98333.85
2023-07-08T21:00:32.007Z,98337.13
2023-07-08T21:03:12.012Z,98339.20
2023-07-08T21:05:44.306Z,98343.05
2023-07-08T21:08:28.611Z,98344.36
2023-07-08T21:11:01.625Z,98344.39
2023-07-08T21:13:34.298Z,98344.90
2023-07-08T21:16:12.851Z,98345.98
2023-07-08T21:18:46.543Z,98342.37
2023-07-08T21:21:20.375Z,98346.08
2023-07-08T21:23:54.760Z,98345.11
2023-07-08T21:26:30.571Z,98347.65
2023-07-08T21:29:05.274Z,98349.95
2023-07-08T21:31:37.984Z,98353.36
2023-07-08T21:34:11.834Z,98356.67
2023-07-08T21:36:48.047Z,98354.00
2023-07-08T21:39:29.531Z,98353.34
2023-07-08T21:42:04.782Z,98351.27
2023-07-08T21:44:36.886Z,98353.71
2023-07-08T21:47:09.714Z,98352.09
2023-07-08T21:49:42.103Z,98349.92
2023-07-08T21:52:15.995Z,98352.86
2023-07-08T21:54:47.925Z,98351.81
2023-07-08T21:57:20.784Z,98350.00
2023-07-08T21:59:52.968Z,98354.02
2023-07-08T22:02:26.278Z,98356.20
2023-07-08T22:04:59.489Z,98354.73
2023-07-08T22:07:31.407Z,98353.41
2023-07-08T22:10:03.882Z,98352.70
2023-07-08T22:12:37.992Z,98351.92
2023-07-08T22:15:23.361Z,98353.60
2023-07-08T22:18:00.556Z,98349.91
2023-07-08T22:20:33.774Z,98347.30
2023-07-08T22:23:06.781Z,98347.82
2023-07-08T22:25:38.932Z,98349.30
2023-07-08T22:28:13.493Z,98347.83
2023-07-08T22:30:47.341Z,98349.30
2023-07-08T22:33:24.012Z,98349.50
2023-07-08T22:35:58.353Z,98351.55
2023-07-08T22:38:31.834Z,98349.45
2023-07-08T22:41:04.009Z,98351.75
2023-07-08T22:43:38.012Z,98351.39
2023-07-08T22:46:11.820Z,98349.15
2023-07-08T22:48:46.600Z,98348.97
2023-07-08T22:51:18.779Z,98347.83
2023-07-08T22:53:51.054Z,98350.44
2023-07-08T22:56:23.127Z,98347.13
2023-07-08T22:58:55.352Z,98347.02
2023-07-08T23:01:26.985Z,98346.02
2023-07-08T23:03:59.205Z,98344.38
2023-07-08T23:06:32.906Z,98346.92
2023-07-08T23:09:05.376Z,98347.13
2023-07-08T23:11:37.737Z,98350.64
2023-07-08T23:14:10.760Z,98346.64
2023-07-08T23:16:43.157Z,98347.95
2023-07-08T23:19:15.167Z,98351.04
2023-07-08T23:21:48.222Z,98346.05
2023-07-08T23:24:20.100Z,98351.12
2023-07-08T23:26:52.325Z,98355.42
2023-07-08T23:29:26.128Z,98356.77
2023-07-08T23:31:59.814Z,98356.64
2023-07-08T23:34:31.704Z,98358.59
2023-07-08T23:37:04.565Z,98362.38
2023-07-08T23:39:36.358Z,98364.51
2023-07-08T23:42:13.064Z,98362.20
2023-07-08T23:44:45.232Z,98365.05
2023-07-08T23:47:23.497Z,98361.70
2023-07-08T23:49:55.895Z,98359.38
2023-07-08T23:52:28.566Z,98355.95
2023-07-08T23:55:01.128Z,98356.67
2023-07-08T23:57:33.035Z,98359.98
